createdAt,value
2023-08-29T00:00:01.163Z,98025.41
2023-08-29T00:02:32.970Z,98045.81
2023-08-29T00:05:00.260Z,98049.56
2023-08-29T00:07:27.108Z,98027.72
2023-08-29T00:09:56.568Z,98008.16
2023-08-29T00:12:23.407Z,97995.47
2023-08-29T00:14:50.870Z,97976.94
2023-08-29T00:17:17.604Z,97942.00
2023-08-29T00:19:44.450Z,97952.81
2023-08-29T00:22:11.204Z,97955.31
2023-08-29T00:24:37.989Z,97961.97
2023-08-29T00:27:04.933Z,97941.97
2023-08-29T00:29:31.661Z,97935.34
2023-08-29T00:31:58.397Z,97937.59
2023-08-29T00:34:25.195Z,97970.72
2023-08-29T00:36:53.132Z,97964.66
2023-08-29T00:39:20.256Z,97953.22
2023-08-29T00:41:50.344Z,97930.94
2023-08-29T00:44:17.792Z,97932.41
2023-08-29T00:46:46.235Z,97928.47
2023-08-29T00:49:20.388Z,97907.00
2023-08-29T00:51:47.692Z,97939.69
2023-08-29T00:54:16.971Z,97937.56
2023-08-29T00:56:45.518Z,97921.53
2023-08-29T00:59:12.768Z,97876.00
2023-08-29T01:01:40.104Z,97916.38
2023-08-29T01:04:07.082Z,97920.31
2023-08-29T01:06:34.407Z,97890.78
2023-08-29T01:09:01.401Z,97927.00
2023-08-29T01:11:43.076Z,97934.50
2023-08-29T01:14:31.476Z,97944.06
2023-08-29T01:17:09.419Z,97932.63
2023-08-29T01:19:41.248Z,97933.63
2023-08-29T01:22:10.900Z,97953.03
2023-08-29T01:24:46.543Z,97938.22
2023-08-29T01:27:14.097Z,97965.50
2023-08-29T01:29:42.324Z,97945.72
2023-08-29T01:32:09.609Z,97901.00
2023-08-29T01:34:36.466Z,97911.41
2023-08-29T01:37:03.215Z,97949.22
2023-08-29T01:39:30.113Z,97966.97
2023-08-29T01:41:56.904Z,97960.72
2023-08-29T01:44:23.669Z,97948.66
2023-08-29T01:46:50.428Z,97938.03
2023-08-29T01:49:17.639Z,97908.47
2023-08-29T01:51:44.617Z,97882.50
2023-08-29T01:54:11.559Z,97871.63
2023-08-29T01:56:41.069Z,97875.00
2023-08-29T01:59:08.908Z,97899.53
2023-08-29T02:01:35.823Z,97894.31
2023-08-29T02:04:02.640Z,97887.69
2023-08-29T02:06:29.403Z,97902.66
2023-08-29T02:08:56.242Z,97890.59
2023-08-29T02:11:23.012Z,97890.81
2023-08-29T02:13:49.763Z,97914.31
2023-08-29T02:16:16.582Z,97916.16
2023-08-29T02:18:43.488Z,97922.44
2023-08-29T02:21:10.238Z,97919.09
2023-08-29T02:23:37.344Z,97927.00
2023-08-29T02:26:05.690Z,97947.16
2023-08-29T02:28:40.066Z,97950.28
2023-08-29T02:31:09.026Z,97944.47
2023-08-29T02:33:40.938Z,97943.44
2023-08-29T02:36:08.263Z,97944.50
2023-08-29T02:38:35.447Z,97963.00
2023-08-29T02:41:02.474Z,97910.59
2023-08-29T02:43:29.537Z,97954.06
2023-08-29T02:45:56.482Z,97939.88
2023-08-29T02:48:23.437Z,97934.72
2023-08-29T02:50:50.301Z,97935.13
2023-08-29T02:53:21.738Z,97922.66
2023-08-29T02:55:53.000Z,97889.38
2023-08-29T02:58:20.963Z,97901.22
2023-08-29T03:00:49.118Z,97903.91
2023-08-29T03:03:18.008Z,97885.34
2023-08-29T03:05:56.785Z,97881.56
2023-08-29T03:08:23.677Z,97885.97
2023-08-29T03:10:54.226Z,97886.00
2023-08-29T03:13:21.124Z,97887.88
2023-08-29T03:15:48.391Z,97862.31
2023-08-29T03:18:15.587Z,97885.97
2023-08-29T03:20:43.388Z,97881.84
2023-08-29T03:23:10.463Z,97854.38
2023-08-29T03:25:37.509Z,97890.94
2023-08-29T03:28:04.912Z,97884.13
2023-08-29T03:30:32.051Z,97887.25
2023-08-29T03:32:59.351Z,97870.00
2023-08-29T03:35:26.230Z,97866.22
2023-08-29T03:37:52.980Z,97908.28
2023-08-29T03:40:19.872Z,97900.38
2023-08-29T03:42:47.557Z,97906.13
2023-08-29T03:45:14.356Z,97893.44
2023-08-29T03:47:41.118Z,97898.41
2023-08-29T03:50:08.872Z,97905.28
2023-08-29T03:52:35.645Z,97891.41
2023-08-29T03:55:02.473Z,97904.72
2023-08-29T03:57:29.268Z,97861.66
2023-08-29T03:59:56.605Z,97872.69
2023-08-29T04:02:23.549Z,97911.81
2023-08-29T04:04:53.421Z,97865.81
2023-08-29T04:07:20.680Z,97909.47
2023-08-29T04:09:47.479Z,97880.59
2023-08-29T04:12:14.272Z,97915.13
2023-08-29T04:14:41.123Z,97893.31
2023-08-29T04:17:07.892Z,97891.00
2023-08-29T04:19:34.962Z,97899.72
2023-08-29T04:22:02.174Z,97929.91
2023-08-29T04:24:30.729Z,97916.59
2023-08-29T04:26:57.624Z,97893.28
2023-08-29T04:29:24.435Z,97887.47
2023-08-29T04:31:51.339Z,97909.94
2023-08-29T04:34:18.467Z,97909.94
2023-08-29T04:36:46.644Z,97934.44
2023-08-29T04:39:13.497Z,97894.53
2023-08-29T04:41:40.258Z,97936.13
2023-08-29T04:44:07.512Z,97928.06
2023-08-29T04:46:34.308Z,97947.56
2023-08-29T04:49:01.194Z,97925.97
2023-08-29T04:51:27.956Z,97935.94
2023-08-29T04:53:54.666Z,97957.56
2023-08-29T04:56:26.003Z,97959.41
2023-08-29T04:58:52.851Z,97944.00
2023-08-29T05:01:19.727Z,97907.81
2023-08-29T05:03:46.544Z,97942.56
2023-08-29T05:06:13.395Z,97913.28
2023-08-29T05:08:40.119Z,97939.88
2023-08-29T05:11:06.854Z,97924.25
2023-08-29T05:13:33.692Z,97909.75
2023-08-29T05:16:00.577Z,97925.53
2023-08-29T05:18:28.582Z,97919.69
2023-08-29T05:20:55.953Z,97908.25
2023-08-29T05:23:23.368Z,97912.63
2023-08-29T05:25:50.812Z,97935.34
2023-08-29T05:28:17.590Z,97924.69
2023-08-29T05:30:44.821Z,97907.03
2023-08-29T05:33:12.356Z,97888.94
2023-08-29T05:35:39.130Z,97914.53
2023-08-29T05:38:06.177Z,97907.25
2023-08-29T05:40:34.483Z,97887.50
2023-08-29T05:43:01.494Z,97877.53
2023-08-29T05:45:28.256Z,97918.25
2023-08-29T05:47:55.129Z,97934.69
2023-08-29T05:50:21.910Z,97899.16
2023-08-29T05:52:48.691Z,97923.25
2023-08-29T05:55:15.529Z,97937.81
2023-08-29T05:57:42.343Z,97922.84
2023-08-29T06:00:10.458Z,97943.66
2023-08-29T06:02:37.277Z,97963.22
2023-08-29T06:05:07.492Z,97948.66
2023-08-29T06:07:34.773Z,97939.66
2023-08-29T06:10:01.666Z,97958.63
2023-08-29T06:12:28.430Z,97959.06
2023-08-29T06:14:55.470Z,97966.97
2023-08-29T06:17:22.234Z,97930.31
2023-08-29T06:19:49.076Z,97969.03
2023-08-29T06:22:15.902Z,97938.84
2023-08-29T06:24:42.799Z,97988.59
2023-08-29T06:27:09.587Z,97985.69
2023-08-29T06:29:36.449Z,98004.41
2023-08-29T06:32:03.230Z,98013.13
2023-08-29T06:34:30.026Z,98003.16
2023-08-29T06:36:58.945Z,98012.06
2023-08-29T06:39:25.846Z,98005.66
2023-08-29T06:41:52.590Z,97997.13
2023-08-29T06:44:19.358Z,98005.25
2023-08-29T06:46:46.144Z,97985.03
2023-08-29T06:49:12.865Z,97984.84
2023-08-29T06:51:39.654Z,98017.09
2023-08-29T06:54:06.447Z,97990.88
2023-08-29T06:56:33.204Z,98001.09
2023-08-29T06:59:00.100Z,98015.03
2023-08-29T07:01:26.977Z,98034.16
2023-08-29T07:03:53.996Z,98048.91
2023-08-29T07:06:22.364Z,98040.41
2023-08-29T07:08:49.257Z,98037.66
2023-08-29T07:11:15.995Z,98047.88
2023-08-29T07:13:42.814Z,98051.81
2023-08-29T07:16:09.541Z,98048.09
2023-08-29T07:18:36.307Z,98050.56
2023-08-29T07:21:03.060Z,98042.44
2023-08-29T07:23:30.615Z,98070.31
2023-08-29T07:25:57.420Z,98066.31
2023-08-29T07:28:24.393Z,98064.88
2023-08-29T07:30:54.286Z,98061.34
2023-08-29T07:33:21.636Z,98080.28
2023-08-29T07:35:49.642Z,98075.47
2023-08-29T07:38:18.858Z,98072.38
2023-08-29T07:40:47.044Z,98057.16
2023-08-29T07:43:16.009Z,98070.72
2023-08-29T07:45:43.156Z,98089.88
2023-08-29T07:48:10.687Z,98056.38
2023-08-29T07:50:37.926Z,98071.16
2023-08-29T07:53:04.892Z,98076.78
2023-08-29T07:55:32.860Z,98058.88
2023-08-29T07:58:00.791Z,98098.00
2023-08-29T08:00:29.598Z,98086.94
2023-08-29T08:02:57.112Z,98097.72
2023-08-29T08:05:24.716Z,98089.59
2023-08-29T08:07:51.596Z,98073.75
2023-08-29T08:10:19.171Z,98082.31
2023-08-29T08:12:50.529Z,98076.69
2023-08-29T08:15:17.879Z,98093.56
2023-08-29T08:17:45.294Z,98101.03
2023-08-29T08:20:13.399Z,98108.75
2023-08-29T08:22:41.935Z,98113.97
2023-08-29T08:25:10.579Z,98112.91
2023-08-29T08:27:37.785Z,98102.09
2023-08-29T08:30:08.921Z,98105.69
2023-08-29T08:32:36.261Z,98104.88
2023-08-29T08:35:07.733Z,98111.59
2023-08-29T08:37:35.538Z,98083.84
2023-08-29T08:40:02.539Z,98112.63
2023-08-29T08:42:31.450Z,98106.41
2023-08-29T08:44:58.518Z,98062.44
2023-08-29T08:47:25.702Z,98098.00
2023-08-29T08:49:52.700Z,98118.19
2023-08-29T08:52:19.566Z,98110.50
2023-08-29T08:54:46.417Z,98130.25
2023-08-29T08:57:14.755Z,98126.38
2023-08-29T08:59:43.394Z,98131.94
2023-08-29T09:02:14.673Z,98144.81
2023-08-29T09:04:41.722Z,98142.09
2023-08-29T09:07:08.530Z,98150.66
2023-08-29T09:09:35.393Z,98158.13
2023-08-29T09:12:02.281Z,98137.09
2023-08-29T09:14:29.144Z,98148.38
2023-08-29T09:17:01.261Z,98156.78
2023-08-29T09:19:31.320Z,98127.63
2023-08-29T09:21:59.130Z,98114.72
2023-08-29T09:24:38.425Z,98150.34
2023-08-29T09:27:10.895Z,98148.25
2023-08-29T09:29:38.082Z,98103.88
2023-08-29T09:32:15.346Z,98116.13
2023-08-29T09:34:42.843Z,98141.53
2023-08-29T09:37:12.275Z,98170.31
2023-08-29T09:39:39.224Z,98161.34
2023-08-29T09:42:11.729Z,98171.38
2023-08-29T09:44:41.041Z,98164.91
2023-08-29T09:47:10.479Z,98168.25
2023-08-29T09:49:45.195Z,98168.66
2023-08-29T09:52:12.047Z,98152.41
2023-08-29T09:54:46.458Z,98149.09
2023-08-29T09:57:16.648Z,98149.28
2023-08-29T09:59:44.670Z,98145.53
2023-08-29T10:02:13.094Z,98143.88
2023-08-29T10:04:46.038Z,98170.09
2023-08-29T10:07:26.590Z,98160.22
2023-08-29T10:09:54.205Z,98182.22
2023-08-29T10:12:22.066Z,98193.50
2023-08-29T10:14:49.693Z,98188.41
2023-08-29T10:17:29.652Z,98200.75
2023-08-29T10:20:00.157Z,98208.69
2023-08-29T10:22:31.454Z,98211.78
2023-08-29T10:25:02.085Z,98173.88
2023-08-29T10:27:29.023Z,98212.22
2023-08-29T10:30:03.673Z,98202.41
2023-08-29T10:32:31.544Z,98204.50
2023-08-29T10:34:59.041Z,98197.47
2023-08-29T10:37:27.353Z,98187.34
2023-08-29T10:39:54.735Z,98172.19
2023-08-29T10:42:21.527Z,98186.19
2023-08-29T10:44:50.414Z,98197.63
2023-08-29T10:47:27.856Z,98193.03
2023-08-29T10:50:03.700Z,98200.97
2023-08-29T10:52:37.764Z,98190.09
2023-08-29T10:55:19.530Z,98192.22
2023-08-29T10:57:46.315Z,98180.53
2023-08-29T11:00:21.581Z,98197.41
2023-08-29T11:02:49.238Z,98203.25
2023-08-29T11:05:16.979Z,98214.06
2023-08-29T11:07:44.317Z,98204.50
2023-08-29T11:10:23.300Z,98183.22
2023-08-29T11:13:07.729Z,98183.44
2023-08-29T11:15:53.053Z,98185.56
2023-08-29T11:18:24.209Z,98188.25
2023-08-29T11:20:51.203Z,98166.59
2023-08-29T11:23:18.400Z,98181.56
2023-08-29T11:25:45.303Z,98187.00
2023-08-29T11:28:12.008Z,98170.13
2023-08-29T11:30:44.179Z,98158.25
2023-08-29T11:33:11.515Z,98154.50
2023-08-29T11:35:38.348Z,98178.03
2023-08-29T11:38:07.510Z,98159.09
2023-08-29T11:40:45.923Z,98157.78
2023-08-29T11:43:37.178Z,98166.94
2023-08-29T11:46:10.362Z,98166.53
2023-08-29T11:48:37.348Z,98150.59
2023-08-29T11:51:08.834Z,98170.63
2023-08-29T11:53:37.782Z,98166.66
2023-08-29T11:56:05.923Z,98170.63
2023-08-29T11:58:36.608Z,98165.28
2023-08-29T12:01:10.649Z,98167.34
2023-08-29T12:03:39.286Z,98154.69
2023-08-29T12:06:14.048Z,98154.88
2023-08-29T12:08:44.626Z,98165.50
2023-08-29T12:11:17.128Z,98150.31
2023-08-29T12:14:02.510Z,98147.81
2023-08-29T12:16:29.864Z,98153.69
2023-08-29T12:19:07.520Z,98160.13
2023-08-29T12:21:34.242Z,98157.59
2023-08-29T12:24:11.775Z,98155.72
2023-08-29T12:26:39.013Z,98163.25
2023-08-29T12:29:05.797Z,98157.44
2023-08-29T12:31:33.248Z,98162.63
2023-08-29T12:33:59.962Z,98143.69
2023-08-29T12:36:26.842Z,98149.72
2023-08-29T12:38:53.685Z,98140.50
2023-08-29T12:41:20.698Z,98149.22
2023-08-29T12:43:47.457Z,98150.66
2023-08-29T12:46:14.514Z,98154.97
2023-08-29T12:48:42.198Z,98168.91
2023-08-29T12:51:09.249Z,98158.13
2023-08-29T12:53:37.017Z,98154.06
2023-08-29T12:56:03.860Z,98169.16
2023-08-29T12:58:30.639Z,98169.34
2023-08-29T13:00:57.782Z,98176.88
2023-08-29T13:03:24.683Z,98166.53
2023-08-29T13:05:51.628Z,98159.25
2023-08-29T13:08:19.832Z,98176.56
2023-08-29T13:10:46.927Z,98156.34
2023-08-29T13:13:13.714Z,98159.66
2023-08-29T13:15:50.462Z,98166.56
2023-08-29T13:18:18.267Z,98164.47
2023-08-29T13:20:45.063Z,98172.97
2023-08-29T13:23:11.872Z,98159.22
2023-08-29T13:25:38.774Z,98172.38
2023-08-29T13:28:06.154Z,98172.38
2023-08-29T13:30:33.857Z,98165.06
2023-08-29T13:33:00.741Z,98181.94
2023-08-29T13:35:27.461Z,98176.34
2023-08-29T13:37:54.247Z,98177.19
2023-08-29T13:40:21.990Z,98185.09
2023-08-29T13:42:50.684Z,98180.53
2023-08-29T13:45:17.810Z,98176.16
2023-08-29T13:47:46.132Z,98178.47
2023-08-29T13:50:13.092Z,98180.53
2023-08-29T13:52:39.955Z,98184.31
2023-08-29T13:55:07.006Z,98195.31
2023-08-29T13:57:33.870Z,98194.91
2023-08-29T14:00:00.738Z,98181.78
2023-08-29T14:02:27.622Z,98186.78
2023-08-29T14:04:54.488Z,98196.56
2023-08-29T14:07:21.934Z,98191.34
2023-08-29T14:09:48.846Z,98192.41
2023-08-29T14:12:15.810Z,98188.25
2023-08-29T14:14:42.822Z,98148.69
2023-08-29T14:17:09.857Z,98155.56
2023-08-29T14:19:37.380Z,98168.22
2023-08-29T14:22:05.468Z,98182.81
2023-08-29T14:24:32.751Z,98166.13
2023-08-29T14:26:59.564Z,98178.63
2023-08-29T14:29:30.139Z,98181.16
2023-08-29T14:31:57.443Z,98170.28
2023-08-29T14:34:24.207Z,98161.09
2023-08-29T14:36:51.278Z,98166.13
2023-08-29T14:39:18.149Z,98165.91
2023-08-29T14:41:45.170Z,98165.25
2023-08-29T14:44:12.534Z,98175.00
2023-08-29T14:46:39.806Z,98170.09
2023-08-29T14:49:07.347Z,98177.22
2023-08-29T14:51:34.655Z,98190.31
2023-08-29T14:54:04.770Z,98185.31
2023-08-29T14:56:32.188Z,98150.72
2023-08-29T14:59:00.740Z,98189.31
2023-08-29T15:01:28.387Z,98186.97
2023-08-29T15:03:55.733Z,98185.69
2023-08-29T15:06:25.391Z,98182.19
2023-08-29T15:08:52.685Z,98188.63
2023-08-29T15:11:19.877Z,98182.38
2023-08-29T15:13:46.874Z,98184.47
2023-08-29T15:16:14.047Z,98174.06
2023-08-29T15:18:41.285Z,98171.78
2023-08-29T15:21:08.658Z,98179.47
2023-08-29T15:23:35.711Z,98188.63
2023-08-29T15:26:05.471Z,98164.47
2023-08-29T15:28:32.451Z,98189.25
2023-08-29T15:31:02.471Z,98186.97
2023-08-29T15:33:30.427Z,98193.22
2023-08-29T15:36:01.220Z,98180.31
2023-08-29T15:38:30.307Z,98194.91
2023-08-29T15:40:57.810Z,98198.25
2023-08-29T15:43:28.062Z,98193.22
2023-08-29T15:45:56.777Z,98211.59
2023-08-29T15:48:23.874Z,98200.75
2023-08-29T15:50:54.877Z,98209.06
2023-08-29T15:53:21.774Z,98217.44
2023-08-29T15:55:49.269Z,98225.31
2023-08-29T15:58:18.054Z,98227.63
2023-08-29T16:00:45.333Z,98224.50
2023-08-29T16:03:12.740Z,98233.88
2023-08-29T16:05:39.934Z,98236.34
2023-08-29T16:08:07.041Z,98222.41
2023-08-29T16:10:34.585Z,98231.09
2023-08-29T16:13:01.939Z,98236.91
2023-08-29T16:15:29.113Z,98229.22
2023-08-29T16:17:56.220Z,98240.50
2023-08-29T16:20:23.223Z,98250.69
2023-08-29T16:22:50.556Z,98234.84
2023-08-29T16:25:19.680Z,98243.97
2023-08-29T16:27:46.736Z,98251.91
2023-08-29T16:30:14.461Z,98258.75
2023-08-29T16:32:41.620Z,98256.81
2023-08-29T16:35:08.894Z,98238.75
2023-08-29T16:37:38.926Z,98254.38
2023-08-29T16:40:08.384Z,98269.34
2023-08-29T16:42:36.662Z,98265.41
2023-08-29T16:45:05.442Z,98258.13
2023-08-29T16:47:32.539Z,98244.53
2023-08-29T16:49:59.571Z,98247.41
2023-08-29T16:52:28.455Z,98260.50
2023-08-29T16:54:55.762Z,98233.16
2023-08-29T16:57:23.073Z,98261.97
2023-08-29T17:00:02.091Z,98258.50
2023-08-29T17:02:29.838Z,98226.56
2023-08-29T17:04:57.213Z,98255.28
2023-08-29T17:07:25.692Z,98248.63
2023-08-29T17:09:52.758Z,98262.19
2023-08-29T17:12:21.951Z,98257.16
2023-08-29T17:14:53.260Z,98265.06
2023-08-29T17:17:21.951Z,98251.69
2023-08-29T17:19:49.347Z,98273.09
2023-08-29T17:22:16.449Z,98267.41
2023-08-29T17:24:44.037Z,98261.22
2023-08-29T17:27:10.889Z,98255.78
2023-08-29T17:29:38.052Z,98265.44
2023-08-29T17:32:05.967Z,98248.97
2023-08-29T17:34:33.166Z,98263.16
2023-08-29T17:37:00.372Z,98254.16
2023-08-29T17:39:28.521Z,98260.66
2023-08-29T17:41:56.436Z,98250.31
2023-08-29T17:44:23.964Z,98280.94
2023-08-29T17:46:51.876Z,98252.28
2023-08-29T17:49:20.787Z,98283.88
2023-08-29T17:51:49.375Z,98279.13
2023-08-29T17:54:16.708Z,98249.66
2023-08-29T17:56:45.569Z,98264.84
2023-08-29T17:59:12.913Z,98270.91
2023-08-29T18:01:42.575Z,98275.03
2023-08-29T18:04:10.706Z,98268.41
2023-08-29T18:06:40.771Z,98258.19
2023-08-29T18:09:14.611Z,98236.00
2023-08-29T18:11:42.052Z,98284.81
2023-08-29T18:14:09.409Z,98274.28
2023-08-29T18:16:37.383Z,98268.03
2023-08-29T18:19:09.916Z,98278.28
2023-08-29T18:21:41.185Z,98233.88
2023-08-29T18:24:09.045Z,98292.03
2023-08-29T18:26:39.950Z,98295.81
2023-08-29T18:29:07.842Z,98288.75
2023-08-29T18:31:35.116Z,98285.25
2023-08-29T18:34:02.311Z,98273.75
2023-08-29T18:36:29.612Z,98284.31
2023-08-29T18:39:00.557Z,98246.81
2023-08-29T18:41:27.875Z,98266.44
2023-08-29T18:43:55.764Z,98284.75
2023-08-29T18:46:28.379Z,98275.81
2023-08-29T18:48:56.566Z,98282.25
2023-08-29T18:51:24.540Z,98289.44
2023-08-29T18:53:54.250Z,98297.75
2023-08-29T18:56:22.707Z,98291.09
2023-08-29T18:58:50.082Z,98302.75
2023-08-29T19:01:19.241Z,98294.19
2023-08-29T19:03:48.491Z,98290.25
2023-08-29T19:06:22.044Z,98280.00
2023-08-29T19:08:51.860Z,98285.25
2023-08-29T19:11:19.522Z,98285.47
2023-08-29T19:13:46.847Z,98277.72
2023-08-29T19:16:14.894Z,98288.53
2023-08-29T19:18:44.689Z,98276.50
2023-08-29T19:21:11.921Z,98286.69
2023-08-29T19:23:39.664Z,98290.06
2023-08-29T19:26:07.225Z,98274.88
2023-08-29T19:28:42.757Z,98268.19
2023-08-29T19:31:13.464Z,98231.22
2023-08-29T19:33:41.126Z,98222.69
2023-08-29T19:36:21.386Z,98233.94
2023-08-29T19:38:49.101Z,98229.75
2023-08-29T19:41:17.355Z,98278.56
2023-08-29T19:43:46.470Z,98289.13
2023-08-29T19:46:14.370Z,98259.06
2023-08-29T19:48:41.886Z,98275.75
2023-08-29T19:51:10.082Z,98279.50
2023-08-29T19:53:39.188Z,98261.94
2023-08-29T19:56:07.783Z,98272.09
2023-08-29T19:58:36.059Z,98266.28
2023-08-29T20:01:07.446Z,98273.22
2023-08-29T20:03:35.915Z,98264.38
2023-08-29T20:06:03.822Z,98258.84
2023-08-29T20:08:31.607Z,98281.66
2023-08-29T20:10:58.845Z,98279.09
2023-08-29T20:13:26.167Z,98283.09
2023-08-29T20:15:53.555Z,98275.41
2023-08-29T20:18:21.426Z,98282.50
2023-08-29T20:20:49.729Z,98279.50
2023-08-29T20:23:19.812Z,98287.47
2023-08-29T20:25:47.086Z,98279.22
2023-08-29T20:28:15.169Z,98288.84
2023-08-29T20:30:42.723Z,98299.31
2023-08-29T20:33:09.547Z,98296.41
2023-08-29T20:35:37.073Z,98302.53
2023-08-29T20:38:08.126Z,98301.13
2023-08-29T20:40:35.614Z,98305.94
2023-08-29T20:43:04.489Z,98294.94
2023-08-29T20:45:32.746Z,98300.88
2023-08-29T20:47:59.921Z,98262.25
2023-08-29T20:50:26.803Z,98289.09
2023-08-29T20:52:53.810Z,98307.34
2023-08-29T20:55:20.984Z,98286.50
2023-08-29T20:57:47.857Z,98292.75
2023-08-29T21:00:14.827Z,98294.94
2023-08-29T21:02:42.240Z,98306.38
2023-08-29T21:05:09.442Z,98294.47
2023-08-29T21:07:36.194Z,98310.94
2023-08-29T21:10:02.961Z,98298.41
2023-08-29T21:12:29.737Z,98290.88
2023-08-29T21:14:56.589Z,98296.66
2023-08-29T21:17:25.781Z,98291.38
2023-08-29T21:19:52.676Z,98305.69
2023-08-29T21:22:19.471Z,98293.41
2023-08-29T21:24:46.288Z,98293.16
2023-08-29T21:27:13.070Z,98282.56
2023-08-29T21:29:39.836Z,98276.59
2023-08-29T21:32:06.860Z,98259.75
2023-08-29T21:34:33.699Z,98271.19
2023-08-29T21:37:00.443Z,98253.63
2023-08-29T21:39:27.186Z,98272.81
2023-08-29T21:41:53.929Z,98274.69
2023-08-29T21:44:20.668Z,98245.97
2023-08-29T21:46:47.330Z,98268.25
2023-08-29T21:49:14.146Z,98274.94
2023-08-29T21:51:40.912Z,98269.28
2023-08-29T21:54:07.680Z,98269.66
2023-08-29T21:56:34.444Z,98275.91
2023-08-29T21:59:01.241Z,98281.56
2023-08-29T22:01:28.050Z,98272.94
2023-08-29T22:03:54.951Z,98285.03
2023-08-29T22:06:21.709Z,98267.34
2023-08-29T22:08:48.439Z,98286.31
2023-08-29T22:11:15.191Z,98269.00
2023-08-29T22:13:41.987Z,98260.47
2023-08-29T22:16:08.869Z,98263.16
2023-08-29T22:18:35.659Z,98269.91
2023-08-29T22:21:04.153Z,98277.44
2023-08-29T22:23:32.108Z,98268.09
2023-08-29T22:25:58.947Z,98255.63
2023-08-29T22:28:25.761Z,98263.72
2023-08-29T22:30:52.517Z,98264.31
2023-08-29T22:33:19.232Z,98259.31
2023-08-29T22:35:49.856Z,98272.63
2023-08-29T22:38:16.882Z,98244.25
2023-08-29T22:40:43.721Z,98270.56
2023-08-29T22:43:10.464Z,98257.44
2023-08-29T22:45:37.306Z,98235.16
2023-08-29T22:48:04.528Z,98253.00
2023-08-29T22:50:32.176Z,98267.41
2023-08-29T22:52:58.903Z,98256.16
2023-08-29T22:55:27.568Z,98263.09
2023-08-29T22:57:54.305Z,98262.25
2023-08-29T23:03:34.121Z,98259.38
2023-08-29T23:06:01.127Z,98276.84
2023-08-29T23:08:28.004Z,98277.13
2023-08-29T23:10:54.731Z,98271.72
2023-08-29T23:13:21.761Z,98270.03
2023-08-29T23:15:50.953Z,98282.34
2023-08-29T23:18:17.836Z,98286.78
2023-08-29T23:20:44.550Z,98283.22
2023-08-29T23:23:11.319Z,98285.69
2023-08-29T23:25:38.079Z,98247.53
2023-08-29T23:28:06.687Z,98265.72
2023-08-29T23:30:36.373Z,98273.91
2023-08-29T23:33:03.248Z,98264.25
2023-08-29T23:35:30.770Z,98271.75
2023-08-29T23:37:57.529Z,98265.94
2023-08-29T23:40:24.319Z,98263.03
2023-08-29T23:42:51.036Z,98272.81
2023-08-29T23:45:18.129Z,98255.94
2023-08-29T23:47:44.923Z,98251.50
2023-08-29T23:50:11.814Z,98256.13
2023-08-29T23:52:38.547Z,98268.88
2023-08-29T23:55:05.621Z,98251.59
2023-08-29T23:57:32.345Z,98259.31
2023-08-29T23:59:59.600Z,98265.06
